Impacts TAF Board
For situational awareness. Not to be used for flight planning purposes.
IDs:

KORD - Chicago/O'Hare Intl, IL, US

Issued at 1120 UTC 17 Dec 2018
Updated at 1253 UTC 17 Dec 2018
Potential Impact None Slight Moderate High
Time<<18/13Z 18/14Z 18/15Z 18/16Z 18/17Z 18/18Z 18/19Z 18/20Z 18/21Z 18/22Z 18/23Z 19/00Z 19/01Z
Type PRVL PRVL PRVL PRVL PRVL
VIS >6 >6 >6 >6 >6
CIG -- -- -- -- --
Cover FEW FEW FEW FEW FEW
FltCat VFR VFR VFR VFR VFR
WX -- -- -- -- --
WDir VRB VRB VRB 180 180
WSpd 3 3 3 6 6
WGst -- -- -- -- --
Raw TAF
KORD 171120Z 1712/1818 32007KT P6SM FEW250
  FM171700 35010KT P6SM FEW250
  FM180000 VRB03KT P6SM FEW250
  FM181600 18006KT P6SM FEW250


METAR Board
Radar Display
Forecast Discussion
For situational awareness. Not to be used for flight planning purposes.